createdAt,value
2023-05-14T00:08:39.721Z,9.5
2023-05-14T00:23:39.704Z,9.4
2023-05-14T00:28:39.718Z,9.3
2023-05-14T00:38:39.701Z,9.1
2023-05-14T00:48:39.707Z,9
2023-05-14T00:53:39.709Z,8.9
2023-05-14T01:03:39.852Z,8.8
2023-05-14T01:13:39.696Z,8.7
2023-05-14T01:18:39.764Z,8.7
2023-05-14T01:28:39.679Z,8.6
2023-05-14T01:33:39.706Z,8.6
2023-05-14T01:43:39.697Z,8.6
2023-05-14T01:58:39.725Z,8.3
2023-05-14T02:03:39.702Z,8.2
2023-05-14T02:13:39.697Z,8.3
2023-05-14T02:18:39.797Z,8.2
2023-05-14T02:28:39.714Z,8.1
2023-05-14T02:33:39.713Z,8.1
2023-05-14T02:43:39.697Z,7.8
2023-05-14T02:53:39.683Z,7.8
2023-05-14T02:58:39.683Z,7.8
2023-05-14T03:03:39.694Z,7.7
2023-05-14T03:08:39.707Z,7.7
2023-05-14T03:18:39.732Z,7.8
2023-05-14T03:28:39.696Z,7.8
2023-05-14T03:43:39.704Z,7.7
2023-05-14T03:53:39.683Z,7.4
2023-05-14T03:58:39.725Z,7.4
2023-05-14T04:03:39.833Z,7.5
2023-05-14T04:08:39.705Z,7.5
2023-05-14T04:18:39.732Z,7.7
2023-05-14T04:28:39.700Z,7.7
2023-05-14T04:33:39.710Z,7.6
2023-05-14T04:43:39.682Z,7.6
2023-05-14T04:48:39.719Z,7.7
2023-05-14T04:53:39.837Z,8.3
2023-05-14T05:03:39.728Z,9.8
2023-05-14T05:08:39.755Z,10.4
2023-05-14T05:18:39.744Z,11.4
2023-05-14T05:23:39.686Z,11.4
2023-05-14T05:28:39.701Z,11.9
2023-05-14T05:38:39.718Z,12.3
2023-05-14T05:48:39.707Z,12.8
2023-05-14T05:58:39.710Z,13.1
2023-05-14T06:03:39.707Z,13.3
2023-05-14T06:13:39.708Z,14.2
2023-05-14T06:23:39.706Z,14.2
2023-05-14T06:33:39.694Z,14
2023-05-14T06:38:39.676Z,14.6
2023-05-14T06:43:39.686Z,14.9
2023-05-14T06:53:39.703Z,15.2
2023-05-14T06:58:39.679Z,14.1
2023-05-14T07:08:39.693Z,13.7
2023-05-14T07:13:39.692Z,13.8
2023-05-14T07:23:39.702Z,15.4
2023-05-14T07:28:39.699Z,15.9
2023-05-14T07:43:39.700Z,16
2023-05-14T07:53:39.694Z,17.9
2023-05-14T08:03:39.831Z,17.3
2023-05-14T08:13:39.713Z,17.2
2023-05-14T08:23:39.714Z,17.1
2023-05-14T08:33:39.697Z,18.2
2023-05-14T08:38:39.708Z,18.1
2023-05-14T08:43:39.698Z,19.4
2023-05-14T08:48:47.050Z,18.9
2023-05-14T08:58:39.683Z,20.1
2023-05-14T09:03:39.720Z,20.9
2023-05-14T09:08:39.698Z,21.6
2023-05-14T09:18:39.728Z,21.1
2023-05-14T09:23:39.700Z,20.4
2023-05-14T09:33:36.543Z,19.8
2023-05-14T09:38:39.694Z,19.8
2023-05-14T09:43:39.705Z,20.3
2023-05-14T09:53:39.693Z,19.4
2023-05-14T09:58:39.704Z,19.8
2023-05-14T10:08:39.682Z,19.6
2023-05-14T10:18:39.704Z,19.9
2023-05-14T10:28:39.679Z,19.8
2023-05-14T10:33:39.697Z,21.1
2023-05-14T10:40:39.369Z,20.4
2023-05-14T10:48:39.688Z,21.9
2023-05-14T10:53:39.707Z,22.2
2023-05-14T11:03:39.717Z,21.4
2023-05-14T11:13:39.697Z,20.7
2023-05-14T11:18:39.702Z,20.8
2023-05-14T11:28:39.697Z,20.3
2023-05-14T11:38:39.694Z,19.9
2023-05-14T11:43:39.702Z,20.1
2023-05-14T11:53:39.695Z,19.5
2023-05-14T12:03:39.783Z,19.3
2023-05-14T12:13:39.689Z,18.7
2023-05-14T12:18:39.777Z,18.6
2023-05-14T12:28:39.680Z,21.3
2023-05-14T12:33:39.697Z,21.4
2023-05-14T12:43:39.698Z,21.9
2023-05-14T12:53:39.689Z,22
2023-05-14T12:58:39.702Z,21.8
2023-05-14T13:08:41.447Z,21.5
2023-05-14T13:18:39.704Z,22.2
2023-05-14T13:28:39.682Z,23.4
2023-05-14T13:33:39.688Z,22.7
2023-05-14T13:43:39.697Z,24.3
2023-05-14T13:53:39.724Z,24.2
2023-05-14T14:03:39.683Z,22.9
2023-05-14T14:08:39.697Z,24.3
2023-05-14T14:18:39.728Z,23.7
2023-05-14T14:23:39.694Z,24.3
2023-05-14T14:28:39.706Z,24.8
2023-05-14T14:38:39.695Z,23.8
2023-05-14T14:48:39.702Z,22.9
2023-05-14T14:58:39.688Z,23.1
2023-05-14T15:03:39.857Z,23.2
2023-05-14T15:13:39.729Z,22.6
2023-05-14T15:23:39.707Z,21.4
2023-05-14T15:33:39.698Z,21.7
2023-05-14T15:38:39.699Z,22.5
2023-05-14T15:48:39.703Z,21.8
2023-05-14T15:58:39.700Z,20.9
2023-05-14T16:08:39.706Z,20.8
2023-05-14T16:13:39.695Z,21.8
2023-05-14T16:23:39.690Z,20.9
2023-05-14T16:28:39.717Z,20.7
2023-05-14T16:38:52.387Z,19.9
2023-05-14T16:48:39.711Z,19.6
2023-05-14T16:53:39.684Z,19.7
2023-05-14T17:03:39.700Z,19.3
2023-05-14T17:13:39.698Z,18.9
2023-05-14T17:23:39.668Z,18.9
2023-05-14T17:28:39.717Z,18.9
2023-05-14T17:38:39.680Z,18.7
2023-05-14T17:48:39.669Z,18.8
2023-05-14T17:53:39.698Z,18.8
2023-05-14T18:03:39.754Z,18.5
2023-05-14T18:13:39.696Z,18.1
2023-05-14T18:23:39.699Z,17.7
2023-05-14T18:28:39.709Z,17.5
2023-05-14T18:38:39.680Z,17.1
2023-05-14T18:43:39.701Z,17
2023-05-14T18:48:39.683Z,17.1
2023-05-14T18:53:39.690Z,16.9
2023-05-14T18:58:39.768Z,16.9
2023-05-14T19:08:39.701Z,16.6
2023-05-14T19:18:39.830Z,16.2
2023-05-14T19:28:39.710Z,15.8
2023-05-14T19:38:39.684Z,15.3
2023-05-14T19:43:39.720Z,15.2
2023-05-14T19:53:39.683Z,14.8
2023-05-14T19:58:39.711Z,14.7
2023-05-14T20:08:39.684Z,14.4
2023-05-14T20:13:39.706Z,14.3
2023-05-14T20:23:39.699Z,14.2
2023-05-14T20:33:39.695Z,13.9
2023-05-14T20:38:39.699Z,13.9
2023-05-14T20:43:39.704Z,13.8
2023-05-14T20:53:39.717Z,13.7
2023-05-14T20:58:39.727Z,13.7
2023-05-14T21:08:39.697Z,13.5
2023-05-14T21:18:39.745Z,13.3
2023-05-14T21:23:39.699Z,13.3
2023-05-14T21:33:39.722Z,13.3
2023-05-14T21:43:39.685Z,12.9
2023-05-14T21:53:39.724Z,12.8
2023-05-14T22:03:39.702Z,12.8
2023-05-14T22:23:39.718Z,12.6
2023-05-14T22:33:39.702Z,12.3
2023-05-14T22:43:39.701Z,12.1
2023-05-14T22:53:39.741Z,12.3
2023-05-14T22:58:39.695Z,12.4
2023-05-14T23:08:39.707Z,12.5
2023-05-14T23:18:39.962Z,12.6
2023-05-14T23:28:39.681Z,12.7
2023-05-14T23:33:39.720Z,12.8
2023-05-14T23:43:39.742Z,12.7
2023-05-14T23:53:39.693Z,12.3
